Time;durP1;ratioP1;P1;durP2;ratioP2;P2;SDS_P1;SDS_P2;PMS_P1;PMS_P2;Temp;Humidity;BMP_temperature;BMP_pressure;BME280_temperature;BME280_humidity;BME280_pressure;Samples;Min_cycle;Max_cycle;Signal;HPM_P1;HPM_P2
2022/08/17 06:13:01;;;;;;;;;20.67;16.00;;;;;23.72;57.25;100545.44;5093482;27;45902;-68
2022/08/17 06:15:42;;;;;;;;;15.33;15.33;;;;;23.82;57.58;100556.94;5083019;27;45452;-68
2022/08/17 06:18:10;;;;;;;;;18.33;15.67;;;;;23.99;57.23;100553.31;5090675;27;45552;-68
2022/08/17 06:20:47;;;;;;;;;18.67;16.00;;;;;24.23;56.92;100567.81;5088542;27;45562;-68
2022/08/17 06:23:28;;;;;;;;;17.00;15.33;;;;;24.46;56.67;100576.81;5089542;27;45358;-69
2022/08/17 06:26:02;;;;;;;;;19.67;16.67;;;;;24.71;56.24;100576.66;5091184;27;45451;-68
2022/08/17 06:28:40;;;;;;;;;15.67;15.67;;;;;24.99;55.76;100578.00;5091067;27;45459;-69
2022/08/17 06:31:15;;;;;;;;;15.33;15.33;;;;;25.23;55.46;100587.81;5090705;27;45472;-69
2022/08/17 06:33:45;;;;;;;;;19.67;19.67;;;;;25.46;54.92;100589.63;5090461;27;46332;-69
2022/08/17 06:36:34;;;;;;;;;19.00;18.00;;;;;25.65;54.75;100577.41;5095966;27;45402;-70
2022/08/17 06:39:42;;;;;;;;;18.33;18.33;;;;;25.87;54.26;100580.19;5090225;27;45490;-69
2022/08/17 06:42:13;;;;;;;;;19.00;17.67;;;;;26.08;53.72;100583.19;5081643;27;45705;-68
2022/08/17 06:45:02;;;;;;;;;16.00;15.33;;;;;26.24;53.04;100588.41;5090513;27;45843;-69
2022/08/17 06:47:59;;;;;;;;;18.67;18.67;;;;;26.41;52.85;100588.22;5091649;27;45623;-68
2022/08/17 06:50:49;;;;;;;;;17.67;15.67;;;;;26.51;52.67;100588.75;5084839;27;45351;-69
2022/08/17 06:53:54;;;;;;;;;18.33;17.00;;;;;26.65;52.61;100592.44;5091042;27;45705;-69
2022/08/17 06:56:26;;;;;;;;;17.33;16.33;;;;;26.75;51.72;100591.28;5091070;27;45672;-70
2022/08/17 06:58:56;;;;;;;;;15.33;15.00;;;;;26.84;51.88;100590.97;5086388;27;45504;-69
2022/08/17 07:01:29;;;;;;;;;19.00;18.00;;;;;26.95;51.97;100600.53;5090219;27;45403;-69
2022/08/17 07:04:07;;;;;;;;;15.00;15.00;;;;;27.03;51.23;100599.56;5088598;27;45466;-69
2022/08/17 07:06:39;;;;;;;;;17.33;17.33;;;;;27.12;51.10;100602.97;5089589;27;46199;-70
2022/08/17 07:09:16;;;;;;;;;12.33;12.00;;;;;27.18;51.12;100604.09;5088865;27;45445;-70
2022/08/17 07:11:51;;;;;;;;;14.33;13.00;;;;;27.26;51.04;100616.72;5084393;27;45607;-70
2022/08/17 07:14:37;;;;;;;;;15.00;15.00;;;;;27.31;50.40;100628.72;5074040;27;45865;-71
2022/08/17 07:17:09;;;;;;;;;16.00;16.00;;;;;27.36;50.45;100630.84;5068795;27;46043;-70
2022/08/17 07:19:39;;;;;;;;;18.00;18.00;;;;;27.40;50.30;100648.47;5049014;28;45407;-70
2022/08/17 07:22:19;;;;;;;;;16.00;16.00;;;;;27.45;50.09;100647.88;5059931;27;47657;-70
2022/08/17 07:24:57;;;;;;;;;18.33;18.33;;;;;27.45;49.68;100651.47;5055225;28;45456;-70
2022/08/17 07:27:36;;;;;;;;;17.00;16.33;;;;;27.48;50.19;100666.56;5048884;28;45407;-70
2022/08/17 07:30:08;;;;;;;;;15.00;15.00;;;;;27.48;49.56;100664.69;5054637;28;45417;-70
2022/08/17 07:32:49;;;;;;;;;17.00;16.00;;;;;27.49;49.40;100671.84;5060106;28;45428;-69
2022/08/17 07:35:14;;;;;;;;;12.33;12.33;;;;;27.54;49.70;100673.94;5052259;28;45459;-70
2022/08/17 07:37:43;;;;;;;;;17.00;17.00;;;;;27.54;49.76;100662.22;5064280;28;45901;-69
2022/08/17 07:40:46;;;;;;;;;21.67;18.33;;;;;27.55;49.26;100664.72;5058434;28;45494;-69
2022/08/17 07:43:26;;;;;;;;;16.00;16.00;;;;;27.59;49.59;100666.03;5031840;28;45466;-70
2022/08/17 07:48:48;;;;;;;;;16.00;16.00;;;;;27.59;49.17;100673.38;5056621;28;45627;-70
2022/08/17 07:51:26;;;;;;;;;14.33;13.67;;;;;27.58;49.78;100674.38;5058866;28;45479;-70
2022/08/17 07:53:56;;;;;;;;;16.33;16.33;;;;;27.60;49.31;100670.50;5048909;28;45348;-70
2022/08/17 07:56:43;;;;;;;;;17.33;17.33;;;;;27.59;49.63;100670.66;5054434;28;45305;-70
2022/08/17 07:59:11;;;;;;;;;20.67;16.33;;;;;27.64;49.70;100684.56;5043312;28;45427;-70
2022/08/17 08:01:37;;;;;;;;;17.00;17.00;;;;;27.67;48.96;100678.69;5063246;28;45404;-70
2022/08/17 08:04:16;;;;;;;;;15.33;15.33;;;;;27.69;49.64;100687.53;5053913;28;47203;-70
2022/08/17 08:06:51;;;;;;;;;14.67;14.67;;;;;27.71;49.57;100690.06;5051926;28;45553;-69
2022/08/17 08:09:34;;;;;;;;;17.33;16.33;;;;;27.70;49.29;100686.47;5050728;28;46249;-69
2022/08/17 08:12:24;;;;;;;;;18.00;17.00;;;;;27.71;49.57;100688.16;5055949;28;45442;-69
2022/08/17 08:14:58;;;;;;;;;16.67;15.67;;;;;27.70;49.35;100691.06;5033979;28;45522;-69
2022/08/17 08:17:36;;;;;;;;;16.33;15.67;;;;;27.75;49.27;100683.19;5055594;28;45487;-70
2022/08/17 08:20:08;;;;;;;;;20.00;20.00;;;;;27.76;49.84;100684.84;5058780;28;46271;-70
2022/08/17 08:23:02;;;;;;;;;15.33;14.33;;;;;27.78;49.23;100688.22;5054769;28;45618;-69
2022/08/17 08:25:31;;;;;;;;;19.00;18.00;;;;;27.81;49.36;100696.00;4993389;28;45441;-69
2022/08/17 08:28:17;;;;;;;;;17.00;15.67;;;;;27.83;49.79;100696.63;4991918;28;45646;-70
2022/08/17 08:30:48;;;;;;;;;15.00;15.00;;;;;27.83;49.34;100685.72;4993586;28;46183;-71
2022/08/17 08:33:16;;;;;;;;;16.00;13.33;;;;;27.86;49.47;100692.66;4990224;28;46741;-70
2022/08/17 08:35:43;;;;;;;;;15.00;15.00;;;;;27.86;48.76;100696.25;4991669;28;45594;-70
2022/08/17 08:38:22;;;;;;;;;17.67;16.33;;;;;27.85;48.89;100700.03;4993714;28;45581;-70
2022/08/17 08:41:09;;;;;;;;;17.00;16.00;;;;;27.86;48.67;100695.41;4992199;28;45597;-69
2022/08/17 08:44:15;;;;;;;;;16.00;16.00;;;;;27.88;48.64;100693.31;4998959;28;45515;-68
2022/08/17 08:46:59;;;;;;;;;14.33;13.67;;;;;27.92;48.87;100693.75;4984892;28;45640;-68
2022/08/17 08:49:50;;;;;;;;;14.33;13.00;;;;;27.95;49.24;100701.56;4981915;28;45445;-69
2022/08/17 08:52:40;;;;;;;;;16.33;14.00;;;;;28.02;49.24;100696.97;4984430;28;45575;-68
2022/08/17 08:55:27;;;;;;;;;16.67;16.33;;;;;28.07;48.52;100701.84;4984646;28;45584;-68
2022/08/17 08:58:01;;;;;;;;;15.00;15.00;;;;;28.12;48.35;100693.91;4986121;28;45723;-69
2022/08/17 09:00:34;;;;;;;;;14.33;14.33;;;;;28.18;49.28;100690.34;4985902;28;45473;-68
2022/08/17 09:03:18;;;;;;;;;14.67;14.67;;;;;28.19;49.14;100696.66;5035307;28;46144;-69
2022/08/17 09:05:54;;;;;;;;;12.67;12.67;;;;;28.23;48.45;100701.50;5049048;28;45525;-68
2022/08/17 09:08:37;;;;;;;;;16.67;16.33;;;;;28.26;48.97;100695.69;5046225;28;45599;-68
2022/08/17 09:11:09;;;;;;;;;17.67;16.33;;;;;28.29;49.00;100697.16;5049993;28;46871;-68
2022/08/17 09:13:54;;;;;;;;;17.33;17.33;;;;;28.35;48.37;100703.69;5063810;28;46098;-69
2022/08/17 09:16:34;;;;;;;;;14.00;14.00;;;;;28.36;48.45;100705.41;5065230;28;45698;-68
2022/08/17 09:19:15;;;;;;;;;17.67;17.67;;;;;28.41;49.05;100702.91;5068269;27;45509;-67
2022/08/17 09:21:59;;;;;;;;;16.67;16.33;;;;;28.41;48.93;100690.06;5062419;28;45441;-68
2022/08/17 09:24:34;;;;;;;;;17.33;14.67;;;;;28.45;48.39;100687.81;5071648;27;46266;-68
2022/08/17 09:27:22;;;;;;;;;18.00;18.00;;;;;28.47;48.24;100696.63;5071765;27;45376;-67
2022/08/17 09:29:56;;;;;;;;;16.67;15.33;;;;;28.51;48.33;100703.34;5068755;27;45540;-67
2022/08/17 09:32:30;;;;;;;;;13.33;13.33;;;;;28.54;48.69;100707.56;5068586;27;45309;-67
2022/08/17 09:35:00;;;;;;;;;17.00;17.00;;;;;28.56;47.72;100724.56;5067376;27;45909;-68
2022/08/17 09:38:03;;;;;;;;;19.67;17.33;;;;;28.58;47.84;100727.09;5069073;27;45529;-68
2022/08/17 09:40:38;;;;;;;;;15.33;15.33;;;;;28.56;48.00;100732.75;5067898;28;45480;-70
2022/08/17 09:43:26;;;;;;;;;16.00;16.00;;;;;28.54;48.05;100730.22;5066891;28;45549;-70
2022/08/17 09:45:57;;;;;;;;;19.00;18.00;;;;;28.49;47.20;100738.19;5065567;28;46415;-69
2022/08/17 09:48:35;;;;;;;;;22.00;19.33;;;;;28.42;47.50;100734.59;5068212;27;45487;-70
2022/08/17 09:51:09;;;;;;;;;21.00;19.67;;;;;28.38;47.68;100736.03;5063286;28;45726;-69
2022/08/17 09:53:37;;;;;;;;;16.33;15.33;;;;;28.35;47.59;100733.72;5071457;28;45478;-68
2022/08/17 09:56:32;;;;;;;;;18.33;18.33;;;;;28.32;47.73;100742.31;5074326;28;46137;-68
2022/08/17 09:59:04;;;;;;;;;21.33;21.33;;;;;28.31;47.71;100746.91;5068716;27;45422;-70
2022/08/17 10:01:41;;;;;;;;;15.67;14.67;;;;;28.27;47.53;100748.38;5069723;27;45852;-69
2022/08/17 10:04:13;;;;;;;;;17.00;15.33;;;;;28.25;47.75;100751.28;5074341;28;45463;-69
2022/08/17 10:06:51;;;;;;;;;21.33;18.33;;;;;28.23;47.70;100747.91;5071741;28;46476;-68
2022/08/17 10:09:31;;;;;;;;;17.33;17.33;;;;;28.22;47.78;100738.03;5067361;28;45536;-69
2022/08/17 10:12:25;;;;;;;;;16.00;16.00;;;;;28.19;48.33;100734.88;5070773;27;45927;-68
2022/08/17 10:14:56;;;;;;;;;21.33;18.67;;;;;28.17;48.30;100724.16;5072103;28;45892;-69
2022/08/17 10:17:31;;;;;;;;;21.67;18.33;;;;;28.15;48.10;100737.97;5072304;28;45449;-68
2022/08/17 10:20:21;;;;;;;;;19.00;17.33;;;;;28.14;48.31;100738.19;5071939;28;45339;-68
2022/08/17 10:26:11;;;;;;;;;22.33;17.00;;;;;28.09;47.80;100740.66;5073931;28;45398;-68
2022/08/17 10:28:52;;;;;;;;;22.00;20.33;;;;;28.07;48.18;100745.50;5072583;27;46233;-67
2022/08/17 10:31:28;;;;;;;;;17.00;17.00;;;;;28.05;48.09;100747.56;5072514;27;45386;-68
2022/08/17 10:34:24;;;;;;;;;18.67;17.00;;;;;28.03;48.25;100739.56;5073424;27;47074;-68
2022/08/17 10:37:08;;;;;;;;;16.33;16.33;;;;;27.99;47.63;100733.69;5081069;27;45534;-68
2022/08/17 10:39:59;;;;;;;;;19.67;16.67;;;;;28.00;47.56;100738.09;5070873;28;46945;-68
2022/08/17 10:42:49;;;;;;;;;17.33;17.33;;;;;27.99;47.84;100735.56;5071703;27;45516;-68
2022/08/17 10:45:28;;;;;;;;;20.67;20.67;;;;;27.96;48.07;100739.53;5073395;27;45285;-68
2022/08/17 10:48:02;;;;;;;;;16.67;16.67;;;;;27.95;48.25;100739.75;5072993;28;45659;-68
2022/08/17 10:50:58;;;;;;;;;16.67;16.67;;;;;27.95;48.30;100746.03;5073010;28;45458;-68
2022/08/17 10:53:39;;;;;;;;;21.33;20.00;;;;;27.95;48.08;100740.56;5068620;28;45634;-68
2022/08/17 10:56:10;;;;;;;;;19.00;18.67;;;;;27.96;47.92;100728.59;5073355;28;45446;-68
2022/08/17 10:58:48;;;;;;;;;20.67;20.67;;;;;27.94;48.13;100730.72;5072900;28;45415;-68
2022/08/17 11:01:15;;;;;;;;;19.33;19.33;;;;;27.91;47.91;100719.34;5075976;27;46029;-68
2022/08/17 11:03:55;;;;;;;;;19.67;19.00;;;;;27.98;48.25;100728.41;5074938;28;45511;-68
2022/08/17 11:06:36;;;;;;;;;19.00;19.00;;;;;27.99;47.85;100722.75;5066317;28;45846;-69
2022/08/17 11:09:18;;;;;;;;;20.00;20.00;;;;;28.05;47.96;100739.38;5073879;27;45284;-68
2022/08/17 11:11:46;;;;;;;;;20.67;18.67;;;;;28.02;48.06;100730.56;5073157;27;45539;-68
2022/08/17 11:14:36;;;;;;;;;23.67;22.33;;;;;28.13;48.25;100739.22;5075783;28;45494;-69
2022/08/17 11:17:21;;;;;;;;;21.67;21.67;;;;;28.19;47.82;100740.31;5072998;28;45478;-68
2022/08/17 11:19:57;;;;;;;;;22.00;20.00;;;;;28.23;47.92;100738.84;5074214;27;45509;-69
2022/08/17 11:22:32;;;;;;;;;21.33;21.00;;;;;28.27;47.60;100735.56;5074737;27;45390;-69
2022/08/17 11:25:11;;;;;;;;;22.33;20.33;;;;;28.35;47.15;100739.16;5076721;28;45551;-69
2022/08/17 11:27:36;;;;;;;;;21.67;19.67;;;;;28.39;47.73;100743.19;5076461;28;45427;-69
2022/08/17 11:30:10;;;;;;;;;21.33;19.67;;;;;28.43;47.46;100735.44;5075560;28;45723;-69
2022/08/17 11:32:39;;;;;;;;;20.67;20.67;;;;;28.49;47.81;100745.56;5074721;28;46406;-70
2022/08/17 11:35:45;;;;;;;;;20.00;20.00;;;;;28.53;46.91;100744.94;5069008;28;45777;-69
2022/08/17 11:38:28;;;;;;;;;21.67;21.67;;;;;28.57;47.07;100747.28;5070843;28;45832;-69
2022/08/17 11:41:26;;;;;;;;;25.67;21.67;;;;;28.62;46.91;100755.69;5079984;27;45552;-69
2022/08/17 11:44:14;;;;;;;;;21.67;20.00;;;;;28.65;47.17;100747.94;5076121;28;47151;-68
2022/08/17 11:52:56;;;;;;;;;21.00;19.67;;;;;28.74;46.68;100739.56;5070876;28;45516;-70
2022/08/17 11:55:41;;;;;;;;;21.67;21.67;;;;;28.77;47.22;100739.19;5074460;27;45548;-68
2022/08/17 11:58:28;;;;;;;;;20.67;20.67;;;;;28.79;46.54;100734.34;5010653;28;45555;-68
2022/08/17 12:00:59;;;;;;;;;22.67;22.67;;;;;28.81;46.59;100743.16;5006680;28;45500;-69
2022/08/17 12:03:30;;;;;;;;;23.00;23.00;;;;;28.85;46.95;100732.69;5012484;28;46262;-68
2022/08/17 12:06:21;;;;;;;;;25.33;23.33;;;;;28.89;46.22;100747.66;5011624;28;45989;-68
2022/08/17 12:08:53;;;;;;;;;24.00;22.33;;;;;28.90;46.89;100746.59;5005089;28;45536;-67
2022/08/17 12:11:27;;;;;;;;;24.33;22.33;;;;;28.91;46.42;100742.81;5013129;28;45553;-69
2022/08/17 12:13:56;;;;;;;;;26.33;25.00;;;;;28.89;46.86;100751.19;5013094;28;45553;-69
2022/08/17 12:16:21;;;;;;;;;23.33;23.33;;;;;28.90;46.49;100752.06;5012085;28;45472;-70
2022/08/17 12:18:56;;;;;;;;;23.00;23.00;;;;;28.89;46.19;100745.75;5013017;28;45386;-69
2022/08/17 12:21:41;;;;;;;;;27.00;25.00;;;;;28.91;46.40;100756.47;5011697;28;45464;-70
2022/08/17 12:24:34;;;;;;;;;23.33;22.00;;;;;28.91;46.28;100756.47;5014063;28;45447;-68
2022/08/17 12:27:03;;;;;;;;;23.33;23.00;;;;;28.92;46.29;100749.94;5011951;28;46253;-69
2022/08/17 12:29:30;;;;;;;;;21.00;20.33;;;;;28.92;46.54;100741.75;5014033;28;45761;-68
2022/08/17 12:31:57;;;;;;;;;22.33;21.00;;;;;28.95;46.31;100732.31;5010607;28;45498;-68
2022/08/17 12:34:41;;;;;;;;;20.67;19.67;;;;;28.93;45.89;100725.16;5021543;28;45434;-69
2022/08/17 12:37:18;;;;;;;;;25.67;23.33;;;;;28.93;46.71;100722.44;5073739;27;46478;-69
2022/08/17 12:39:53;;;;;;;;;21.33;21.00;;;;;28.94;46.53;100734.22;5074700;27;45553;-69
2022/08/17 12:42:25;;;;;;;;;22.50;21.50;;;;;28.93;46.06;100724.31;5075876;27;45382;-69
2022/08/17 12:44:51;;;;;;;;;22.00;22.00;;;;;28.96;46.38;100732.09;5075343;27;45509;-68
2022/08/17 12:47:18;;;;;;;;;22.33;22.33;;;;;28.95;45.95;100724.13;5074092;27;45638;-68
2022/08/17 12:49:47;;;;;;;;;23.67;22.00;;;;;28.97;46.59;100728.31;5075055;27;45562;-69
2022/08/17 12:52:24;;;;;;;;;20.67;20.67;;;;;28.98;46.14;100723.72;5074754;27;45743;-69
2022/08/17 12:54:59;;;;;;;;;23.67;22.33;;;;;29.01;46.53;100717.84;5075743;27;45360;-70
2022/08/17 12:57:33;;;;;;;;;20.67;20.67;;;;;29.01;46.31;100715.94;5075657;27;46015;-70
2022/08/17 13:00:09;;;;;;;;;26.67;26.33;;;;;29.08;46.49;100717.84;5066603;27;45516;-70
2022/08/17 13:02:43;;;;;;;;;25.00;22.00;;;;;29.12;45.72;100717.22;5071215;27;45537;-70
2022/08/17 13:05:19;;;;;;;;;24.67;24.67;;;;;29.15;46.21;100707.78;5074252;28;45416;-69
2022/08/17 13:07:45;;;;;;;;;25.33;23.33;;;;;29.16;45.89;100713.03;5075373;27;45464;-70
2022/08/17 13:10:33;;;;;;;;;26.67;24.00;;;;;29.17;45.71;100711.97;5074339;27;45443;-69
2022/08/17 13:13:03;;;;;;;;;21.00;19.33;;;;;29.17;46.12;100711.97;5075688;27;45380;-69
2022/08/17 13:15:40;;;;;;;;;21.00;21.00;;;;;29.16;45.90;100710.31;5074212;27;45349;-69
2022/08/17 13:18:27;;;;;;;;;21.00;21.00;;;;;29.16;46.18;100713.03;5075104;27;46277;-69
2022/08/17 13:20:57;;;;;;;;;24.67;23.00;;;;;29.12;45.73;100700.84;5073620;27;45404;-70
2022/08/17 13:23:25;;;;;;;;;24.00;24.00;;;;;29.14;46.03;100711.56;5074721;28;45382;-70
2022/08/17 13:26:03;;;;;;;;;25.00;23.00;;;;;29.17;45.70;100705.66;5074285;27;45690;-70
2022/08/17 13:28:31;;;;;;;;;26.33;26.33;;;;;29.22;45.99;100707.78;5061960;28;45424;-71
2022/08/17 13:31:37;;;;;;;;;24.00;23.00;;;;;29.25;45.64;100707.34;5073541;28;45540;-70
2022/08/17 13:34:21;;;;;;;;;22.00;20.67;;;;;29.26;45.52;100700.84;5052229;28;45472;-71
2022/08/17 13:36:46;;;;;;;;;29.00;29.00;;;;;29.26;45.87;100695.38;5060498;28;45455;-69
2022/08/17 13:39:23;;;;;;;;;25.00;23.33;;;;;29.26;45.70;100692.66;5051664;28;46274;-69
2022/08/17 13:41:52;;;;;;;;;24.00;24.00;;;;;29.29;45.76;100692.22;5050196;28;45478;-70
2022/08/17 13:44:36;;;;;;;;;21.33;20.33;;;;;29.30;45.44;100685.72;5052353;28;45504;-69
2022/08/17 13:47:05;;;;;;;;;21.67;20.00;;;;;29.33;45.80;100679.81;5051657;28;45568;-69
2022/08/17 13:49:35;;;;;;;;;25.00;22.67;;;;;29.36;45.76;100684.88;5052552;28;46234;-69
2022/08/17 13:52:01;;;;;;;;;22.33;21.67;;;;;29.35;45.64;100676.88;5051531;28;45749;-69
2022/08/17 13:54:35;;;;;;;;;24.67;21.67;;;;;29.35;45.45;100669.53;5052236;28;45398;-69
2022/08/17 13:57:05;;;;;;;;;22.33;21.00;;;;;29.35;45.70;100668.69;5050909;28;45463;-69
2022/08/17 14:00:10;;;;;;;;;23.67;23.67;;;;;29.36;46.13;100667.63;5052095;28;46177;-71
2022/08/17 14:02:35;;;;;;;;;24.00;23.00;;;;;29.38;45.88;100649.13;4970672;28;45483;-71
2022/08/17 14:05:01;;;;;;;;;21.33;21.33;;;;;29.37;46.30;100648.28;4984717;28;45446;-70
2022/08/17 14:07:31;;;;;;;;;28.00;25.33;;;;;29.38;46.21;100647.22;5007214;28;45661;-69
2022/08/17 14:10:12;;;;;;;;;24.67;23.67;;;;;29.38;46.86;100643.69;5008465;28;45661;-69
2022/08/17 14:12:40;;;;;;;;;25.67;25.00;;;;;29.38;46.38;100640.94;5009014;28;45406;-70
2022/08/17 14:15:07;;;;;;;;;26.00;24.00;;;;;29.37;46.42;100644.69;5006190;28;45454;-70
2022/08/17 14:17:32;;;;;;;;;23.33;22.67;;;;;29.34;46.71;100635.03;5008135;28;45620;-70
2022/08/17 14:19:58;;;;;;;;;24.33;24.33;;;;;29.32;46.09;100642.63;5008816;28;48605;-68
2022/08/17 14:22:31;;;;;;;;;17.67;17.67;;;;;29.31;46.94;100644.50;4999721;28;45863;-68
2022/08/17 14:24:58;;;;;;;;;29.67;25.00;;;;;29.26;46.87;100638.00;4992610;28;45473;-71
2022/08/17 14:27:26;;;;;;;;;25.33;23.67;;;;;29.26;47.07;100641.56;5006952;28;45488;-70
2022/08/17 14:29:53;;;;;;;;;26.00;25.00;;;;;29.28;47.03;100650.41;5011948;28;45440;-70
2022/08/17 14:32:25;;;;;;;;;26.67;26.67;;;;;29.28;46.79;100644.94;5010310;28;45524;-70
2022/08/17 14:34:52;;;;;;;;;27.67;23.00;;;;;29.29;46.63;100643.88;5009003;28;45515;-70
2022/08/17 14:37:19;;;;;;;;;23.00;23.00;;;;;29.32;46.54;100640.75;5013520;28;45413;-68
2022/08/17 14:39:45;;;;;;;;;26.33;23.67;;;;;29.36;46.76;100648.50;5054109;27;46139;-69
2022/08/17 14:42:11;;;;;;;;;25.67;25.67;;;;;29.25;47.21;100647.22;5075433;27;45524;-68
2022/08/17 14:44:38;;;;;;;;;22.00;20.67;;;;;29.09;47.02;100643.03;5077035;27;45651;-69
2022/08/17 14:47:05;;;;;;;;;27.33;26.00;;;;;28.96;47.38;100635.63;5075886;28;45686;-69
2022/08/17 14:49:30;;;;;;;;;24.67;23.00;;;;;28.84;47.72;100641.69;5076380;27;46036;-69
2022/08/17 14:51:57;;;;;;;;;27.00;24.67;;;;;28.72;48.32;100630.53;5075409;27;47677;-72
2022/08/17 14:54:23;;;;;;;;;21.33;21.33;;;;;28.69;47.84;100635.56;5077972;28;45380;-74
2022/08/17 14:56:48;;;;;;;;;25.00;22.67;;;;;28.64;47.78;100636.19;5075631;28;45517;-74
2022/08/17 14:59:15;;;;;;;;;24.00;23.00;;;;;28.58;48.03;100637.88;5077282;27;46170;-73
2022/08/17 15:01:41;;;;;;;;;23.33;20.67;;;;;28.53;48.07;100632.19;5075739;27;45305;-73
2022/08/17 15:04:07;;;;;;;;;22.33;21.33;;;;;28.49;48.30;100639.91;5070790;27;45736;-72
2022/08/17 15:06:33;;;;;;;;;25.00;24.00;;;;;28.43;48.13;100639.88;5078802;27;45535;-74
2022/08/17 15:08:58;;;;;;;;;23.00;22.00;;;;;28.40;48.29;100642.00;5078339;28;46040;-73
2022/08/17 15:11:23;;;;;;;;;24.67;23.00;;;;;28.38;48.09;100644.09;5074752;27;48106;-73
2022/08/17 15:13:49;;;;;;;;;22.67;22.00;;;;;28.36;48.45;100648.09;5065711;27;45416;-76
2022/08/17 15:16:15;;;;;;;;;25.33;23.33;;;;;28.30;48.31;100648.88;5075374;27;45600;-73
2022/08/17 15:18:41;;;;;;;;;21.67;20.33;;;;;28.29;48.62;100656.25;5076147;27;46070;-75
2022/08/17 15:21:09;;;;;;;;;21.67;19.67;;;;;28.27;48.67;100659.16;5075351;28;45910;-76
2022/08/17 15:23:35;;;;;;;;;22.67;21.00;;;;;28.23;48.12;100659.72;5074381;27;45573;-75
2022/08/17 15:26:01;;;;;;;;;26.00;20.67;;;;;28.23;48.26;100673.38;5076321;28;45352;-75
2022/08/17 15:28:26;;;;;;;;;21.00;20.33;;;;;28.20;48.81;100674.63;5074288;28;49577;-73
2022/08/17 15:30:52;;;;;;;;;21.33;21.33;;;;;28.17;48.02;100675.03;5075920;27;45448;-76
2022/08/17 15:33:21;;;;;;;;;21.00;18.67;;;;;28.16;48.56;100678.81;5076326;28;45450;-74
2022/08/17 15:35:50;;;;;;;;;21.67;21.67;;;;;28.13;48.27;100685.50;5078114;27;45416;-75
2022/08/17 15:38:17;;;;;;;;;19.33;19.33;;;;;28.12;47.92;100677.53;5074585;27;46214;-75
2022/08/17 15:40:45;;;;;;;;;16.00;16.00;;;;;28.11;48.46;100673.94;5073853;28;45844;-73
2022/08/17 15:43:23;;;;;;;;;20.67;18.67;;;;;28.09;47.65;100675.19;5075939;28;45897;-74
2022/08/17 15:45:58;;;;;;;;;17.33;17.33;;;;;28.07;48.41;100680.03;5075279;28;45464;-74
2022/08/17 15:48:39;;;;;;;;;18.00;16.33;;;;;28.03;48.13;100671.38;5065705;28;45946;-78
2022/08/17 15:51:05;;;;;;;;;16.00;16.00;;;;;28.04;48.17;100681.25;5069062;28;45528;-75
2022/08/17 15:53:30;;;;;;;;;19.00;17.33;;;;;28.01;48.78;100677.06;5075805;27;45513;-75
2022/08/17 15:55:56;;;;;;;;;22.00;21.67;;;;;28.00;48.91;100682.69;5074977;28;45428;-73
2022/08/17 15:58:21;;;;;;;;;18.00;17.33;;;;;28.01;49.04;100687.13;5074192;28;59481;-77
2022/08/17 16:00:46;;;;;;;;;14.33;14.33;;;;;28.01;49.06;100698.03;5074195;27;45590;-73
2022/08/17 16:03:13;;;;;;;;;17.00;17.00;;;;;27.99;48.82;100692.75;5074661;27;45563;-74
2022/08/17 16:05:38;;;;;;;;;18.33;17.33;;;;;28.00;48.77;100694.44;5074433;27;45510;-75
2022/08/17 16:08:04;;;;;;;;;18.33;17.33;;;;;27.99;48.89;100691.91;5076252;27;45414;-74
2022/08/17 16:10:29;;;;;;;;;17.33;15.33;;;;;27.98;48.69;100691.09;5074014;27;45517;-74
2022/08/17 16:12:54;;;;;;;;;16.00;15.00;;;;;27.99;48.75;100700.09;5070152;27;45540;-75
2022/08/17 16:15:20;;;;;;;;;18.67;16.33;;;;;27.99;48.63;100700.94;5072680;27;45447;-74
2022/08/17 16:17:45;;;;;;;;;18.33;16.67;;;;;27.99;49.07;100695.50;5075226;28;45842;-75
2022/08/17 16:20:13;;;;;;;;;15.00;12.33;;;;;27.98;48.82;100684.78;5075275;27;45324;-74
2022/08/17 16:22:43;;;;;;;;;18.67;17.00;;;;;28.00;48.89;100688.97;5073638;27;45402;-75
2022/08/17 16:25:12;;;;;;;;;19.00;17.67;;;;;27.99;49.34;100691.91;5072696;27;45554;-74
2022/08/17 16:27:38;;;;;;;;;14.67;14.67;;;;;27.99;49.38;100692.75;5069073;27;45592;-75
2022/08/17 16:30:06;;;;;;;;;16.33;16.00;;;;;27.98;49.66;100693.81;5076579;27;45454;-74
2022/08/17 16:32:32;;;;;;;;;12.67;12.67;;;;;27.97;49.38;100685.81;5074619;27;45409;-74
2022/08/17 16:35:00;;;;;;;;;15.67;15.67;;;;;27.97;49.14;100683.94;5073565;28;45535;-74
2022/08/17 16:37:26;;;;;;;;;18.00;15.33;;;;;27.98;49.86;100698.41;5076182;27;46219;-74
2022/08/17 16:39:51;;;;;;;;;17.33;15.67;;;;;27.96;49.37;100705.97;5073925;28;45645;-74
2022/08/17 16:42:29;;;;;;;;;14.00;14.00;;;;;27.96;49.14;100705.97;5074566;27;45300;-74
